OEBA/ABT METAR and TAF weather

Enter ICAO airport designator
Station Type Date Time Source
OEBA METAR 2019/08/24 08:00 UTC NOAA

OEBA 240800Z 11008KT CAVOK 32/11 Q1019 NOSIG


Station Type Date Time Source
OEBA Decoded METAR 2019/08/24 08:00 UTC NOAA

Station name not available
Aug 24, 2019 - 04:00 AM EDT / 2019.08.24 0800 UTC
Wind: from the ESE (110 degrees) at 9 MPH (8 KT):0
Visibility: greater than 7 mile(s):0
Temperature: 89 F (32 C)
Dew Point: 51 F (11 C)
Relative Humidity: 27%
Pressure (altimeter): 30.09 in. Hg (1019 hPa)
ob: OEBA 240800Z 11008KT CAVOK 32/11 Q1019 NOSIG
cycle: 8

Station Type Date Time Source
OEBA TAF 2019/08/23 12:03 UTC NOAA

TAF OEBA 231100Z 2312/2418 29014KT 9999 SCT030
TEMPO 2312/2318 6000 TSRA FEW025CB BKN030
BECMG 2406/2408 36010KT

Example: see airport list